Time;durP1;ratioP1;P1;durP2;ratioP2;P2;SDS_P1;SDS_P2;PMS_P1;PMS_P2;Temp;Humidity;BMP_temperature;BMP_pressure;BME280_temperature;BME280_humidity;BME280_pressure;Samples;Min_cycle;Max_cycle;Signal;HPM_P1;HPM_P2
2021/03/30 00:01:19;;;;;;;8.50;3.50;;;;;;;10.54;55.26;96075.41;5019076;28;20457;-76
2021/03/30 00:03:46;;;;;;;8.37;4.87;;;;;;;10.55;55.11;96071.84;5054696;28;21021;-76
2021/03/30 00:06:13;;;;;;;9.17;4.60;;;;;;;10.54;55.46;96062.28;5054086;28;20445;-76
2021/03/30 00:08:39;;;;;;;5.57;3.83;;;;;;;10.53;55.51;96061.44;5054586;28;20475;-76
2021/03/30 00:11:06;;;;;;;7.60;4.00;;;;;;;10.49;55.71;96059.97;5054475;28;20829;-76
2021/03/30 00:13:33;;;;;;;10.00;4.27;;;;;;;10.44;55.48;96056.81;5053293;28;20451;-76
2021/03/30 00:15:59;;;;;;;8.90;4.30;;;;;;;10.44;55.97;96056.81;5054730;28;20457;-77
2021/03/30 00:18:26;;;;;;;7.83;3.70;;;;;;;10.43;55.56;96052.50;5054116;28;20561;-76
2021/03/30 00:20:54;;;;;;;4.33;3.70;;;;;;;10.36;55.42;96047.72;5054107;28;20437;-76
2021/03/30 00:23:20;;;;;;;5.30;3.67;;;;;;;10.31;55.40;96049.81;5053999;28;20436;-76
2021/03/30 00:25:46;;;;;;;4.07;3.77;;;;;;;10.35;55.79;96046.88;5054530;28;20459;-76
2021/03/30 00:28:13;;;;;;;8.37;3.43;;;;;;;10.31;55.31;96040.16;5053959;28;20916;-75
2021/03/30 00:30:39;;;;;;;4.03;3.17;;;;;;;10.35;56.28;96041.63;5054465;28;20436;-76
2021/03/30 00:33:05;;;;;;;10.83;5.17;;;;;;;10.36;55.23;96048.56;5035489;28;20445;-77
2021/03/30 00:35:32;;;;;;;9.33;4.07;;;;;;;10.40;55.66;96046.59;5054271;28;20759;-75
2021/03/30 00:37:59;;;;;;;6.93;3.93;;;;;;;10.34;56.07;96045.22;5054215;28;20487;-76
2021/03/30 00:40:26;;;;;;;7.97;4.37;;;;;;;10.38;56.18;96043.22;5053749;28;20449;-77
2021/03/30 00:42:53;;;;;;;7.80;4.40;;;;;;;10.30;56.77;96038.47;5054298;28;20490;-76
2021/03/30 00:45:20;;;;;;;7.90;6.30;;;;;;;10.34;57.27;96039.97;5054149;28;20447;-76
2021/03/30 00:47:48;;;;;;;5.57;4.60;;;;;;;10.34;56.93;96039.13;5053497;28;20750;-76
2021/03/30 00:50:18;;;;;;;6.77;4.50;;;;;;;10.34;56.92;96042.59;5053561;28;20449;-76
2021/03/30 00:52:45;;;;;;;5.90;5.30;;;;;;;10.31;57.17;96040.16;5053502;28;20840;-77
2021/03/30 00:55:14;;;;;;;12.90;5.40;;;;;;;10.30;57.21;96037.66;5053023;28;20451;-77
2021/03/30 00:57:40;;;;;;;9.10;4.97;;;;;;;10.28;57.34;96036.91;5018663;28;20491;-77
2021/03/30 01:00:09;;;;;;;10.67;5.30;;;;;;;10.26;56.77;96031.75;5054038;28;20441;-77
2021/03/30 01:02:36;;;;;;;8.53;5.20;;;;;;;10.24;57.31;96038.88;5053382;28;20483;-77
2021/03/30 01:05:03;;;;;;;7.30;4.40;;;;;;;10.23;57.38;96045.09;5053670;28;20457;-77
2021/03/30 01:07:29;;;;;;;13.87;5.00;;;;;;;10.17;57.56;96043.66;5053873;28;20435;-77
2021/03/30 01:10:06;;;;;;;11.10;4.50;;;;;;;10.13;57.64;96041.34;5053576;28;20451;-76
2021/03/30 01:12:45;;;;;;;10.13;5.43;;;;;;;10.04;57.83;96036.69;5020054;28;20865;-76
2021/03/30 01:15:24;;;;;;;9.10;4.77;;;;;;;10.01;58.12;96042.13;5052917;28;20943;-76
2021/03/30 01:18:00;;;;;;;8.70;5.10;;;;;;;9.94;58.83;96036.44;5053195;28;20487;-77
2021/03/30 01:21:14;;;;;;;5.13;4.40;;;;;;;9.89;58.81;96034.09;5052672;28;20846;-77
2021/03/30 01:23:57;;;;;;;15.07;5.80;;;;;;;9.81;59.77;96033.72;5052896;28;20447;-77
2021/03/30 01:26:35;;;;;;;8.00;4.30;;;;;;;9.74;59.87;96032.44;5037424;28;21006;-77
2021/03/30 01:29:19;;;;;;;11.87;5.17;;;;;;;9.60;59.96;96033.31;5056345;28;20570;-77
2021/03/30 01:31:49;;;;;;;12.60;4.90;;;;;;;9.46;60.43;96035.94;5057193;28;20446;-76
2021/03/30 01:34:20;;;;;;;5.53;4.30;;;;;;;9.41;61.01;96037.19;5057285;28;20461;-76
2021/03/30 01:36:48;;;;;;;7.97;5.43;;;;;;;9.31;60.78;96043.00;5056930;28;20504;-76
2021/03/30 01:39:16;;;;;;;7.10;5.23;;;;;;;9.20;61.65;96032.31;5056692;28;20535;-77
2021/03/30 01:41:45;;;;;;;11.20;5.70;;;;;;;9.12;61.81;96036.34;5057124;28;20913;-76
2021/03/30 01:44:13;;;;;;;8.50;5.50;;;;;;;9.06;61.73;96036.72;5057056;28;20450;-77
2021/03/30 01:46:41;;;;;;;9.20;5.40;;;;;;;9.03;62.15;96040.38;5021955;28;20496;-77
2021/03/30 01:49:09;;;;;;;7.80;5.10;;;;;;;8.97;62.15;96038.13;5056690;28;20755;-77
2021/03/30 01:51:35;;;;;;;15.23;6.13;;;;;;;8.91;62.23;96035.84;5056538;28;20472;-76
2021/03/30 01:54:02;;;;;;;7.20;5.10;;;;;;;8.82;62.62;96039.88;5057056;28;20449;-76
2021/03/30 01:56:31;;;;;;;10.77;6.07;;;;;;;8.78;62.89;96032.28;5056680;28;20449;-76
2021/03/30 01:58:59;;;;;;;16.43;5.70;;;;;;;8.74;62.89;96042.09;5056662;28;20506;-77
2021/03/30 02:01:27;;;;;;;7.93;5.20;;;;;;;8.77;62.82;96035.84;5056102;28;20788;-77
2021/03/30 02:03:54;;;;;;;7.53;5.17;;;;;;;8.76;63.12;96034.16;5056555;28;20773;-76
2021/03/30 02:06:22;;;;;;;4.93;4.40;;;;;;;8.77;62.60;96028.00;5056199;28;20991;-76
2021/03/30 02:08:50;;;;;;;7.93;5.80;;;;;;;8.72;62.86;96028.28;5056656;28;20432;-76
2021/03/30 02:11:25;;;;;;;8.97;5.47;;;;;;;8.60;62.83;96024.59;5056132;28;20989;-76
2021/03/30 02:13:55;;;;;;;8.10;5.10;;;;;;;8.58;63.37;96026.44;5023675;28;20446;-76
2021/03/30 02:16:25;;;;;;;7.63;5.03;;;;;;;8.60;63.07;96024.59;5057051;28;20434;-76
2021/03/30 02:18:57;;;;;;;6.70;4.97;;;;;;;8.57;62.98;96022.16;5056537;28;20491;-75
2021/03/30 02:21:31;;;;;;;7.40;6.70;;;;;;;8.53;63.33;96020.66;5056359;28;20425;-76
2021/03/30 02:23:59;;;;;;;6.70;5.03;;;;;;;8.47;63.07;96012.34;5056216;28;20494;-76
2021/03/30 02:26:26;;;;;;;12.50;5.30;;;;;;;8.50;63.45;96020.00;5055679;28;20446;-76
2021/03/30 02:28:57;;;;;;;8.50;5.10;;;;;;;8.45;63.33;96022.03;5055898;28;20441;-75
2021/03/30 02:31:28;;;;;;;7.93;5.57;;;;;;;8.36;63.79;96018.16;5021081;28;20441;-76
2021/03/30 02:33:59;;;;;;;7.40;4.73;;;;;;;8.28;64.23;96015.13;5056117;28;20434;-76
2021/03/30 02:36:28;;;;;;;8.23;5.10;;;;;;;8.27;64.09;96016.06;5055146;28;20974;-77
2021/03/30 02:38:59;;;;;;;9.83;4.97;;;;;;;8.24;64.06;96016.25;5055317;28;20611;-76
2021/03/30 02:41:28;;;;;;;10.33;4.80;;;;;;;8.18;64.25;96017.44;5037062;28;20524;-75
2021/03/30 02:43:56;;;;;;;7.70;5.43;;;;;;;8.10;64.34;96013.59;5055961;28;20437;-76
2021/03/30 02:46:24;;;;;;;8.30;6.50;;;;;;;8.06;64.99;96018.13;5056199;28;20811;-76
2021/03/30 02:48:52;;;;;;;7.00;5.80;;;;;;;8.02;64.52;96014.00;5037153;28;20441;-76
2021/03/30 02:51:22;;;;;;;9.70;6.53;;;;;;;8.02;64.96;96016.63;5056255;28;20439;-75
2021/03/30 02:53:49;;;;;;;12.40;6.43;;;;;;;7.97;64.93;96016.88;5055757;28;20909;-76
2021/03/30 02:56:16;;;;;;;9.83;4.83;;;;;;;7.98;64.73;96017.72;5055208;28;20498;-77
2021/03/30 02:58:43;;;;;;;7.00;5.67;;;;;;;7.97;64.91;96022.09;5055501;28;20473;-77
2021/03/30 03:01:12;;;;;;;7.30;5.70;;;;;;;7.93;65.18;96015.38;5055269;28;20441;-76
2021/03/30 03:03:40;;;;;;;9.77;5.60;;;;;;;7.93;64.79;96019.75;5054939;28;20903;-76
2021/03/30 03:06:07;;;;;;;8.63;6.00;;;;;;;7.92;64.79;96026.75;5055315;28;21218;-75
2021/03/30 03:08:34;;;;;;;9.10;5.63;;;;;;;7.87;65.28;96017.50;5054935;28;20481;-77
2021/03/30 03:11:02;;;;;;;11.40;5.87;;;;;;;7.83;64.69;96029.06;5054735;28;20438;-76
2021/03/30 03:13:30;;;;;;;8.90;5.10;;;;;;;7.82;65.39;96029.97;5054564;28;20437;-76
2021/03/30 03:15:56;;;;;;;6.57;5.83;;;;;;;7.86;65.28;96032.34;5054714;28;20483;-77
2021/03/30 03:18:25;;;;;;;7.30;5.50;;;;;;;7.88;64.68;96027.88;5054469;28;20473;-77
2021/03/30 03:20:51;;;;;;;6.33;5.30;;;;;;;7.85;65.03;96030.66;5054198;28;20441;-76
2021/03/30 03:23:18;;;;;;;18.73;6.97;;;;;;;7.84;64.51;96028.97;5054158;28;20434;-77
2021/03/30 03:25:46;;;;;;;7.70;5.80;;;;;;;7.84;64.14;96028.13;5054267;28;20437;-77
2021/03/30 03:28:12;;;;;;;9.03;5.80;;;;;;;7.78;64.81;96030.13;5054174;28;20441;-76
2021/03/30 03:30:40;;;;;;;9.20;4.57;;;;;;;7.77;64.62;96027.59;5054027;28;20945;-76
2021/03/30 03:33:07;;;;;;;8.23;6.00;;;;;;;7.72;64.35;96024.41;5054097;28;20433;-77
2021/03/30 03:35:34;;;;;;;7.53;5.80;;;;;;;7.69;64.99;96025.41;5054632;28;20449;-76
2021/03/30 03:38:01;;;;;;;10.70;5.47;;;;;;;7.67;65.03;96031.66;5053933;28;20493;-76
2021/03/30 03:40:28;;;;;;;7.40;5.47;;;;;;;7.66;65.53;96029.97;5053733;28;20788;-77
2021/03/30 03:42:56;;;;;;;10.03;5.70;;;;;;;7.61;65.38;96021.56;5053950;28;20453;-77
2021/03/30 03:45:23;;;;;;;10.87;5.97;;;;;;;7.52;65.67;96029.88;5018869;28;20444;-77
2021/03/30 03:47:49;;;;;;;8.33;6.07;;;;;;;7.49;65.43;96022.19;5053028;28;20445;-76
2021/03/30 03:50:16;;;;;;;8.40;5.40;;;;;;;7.44;65.98;96025.91;5053676;28;20433;-76
2021/03/30 03:52:46;;;;;;;7.67;6.07;;;;;;;7.43;66.03;96023.38;5053925;28;20464;-76
2021/03/30 03:55:16;;;;;;;8.30;6.20;;;;;;;7.42;65.81;96033.00;5035501;28;20845;-76
2021/03/30 03:57:49;;;;;;;8.13;6.40;;;;;;;7.33;66.50;96033.50;5053481;28;20530;-77
2021/03/30 04:00:18;;;;;;;7.33;6.00;;;;;;;7.33;66.18;96032.66;5053535;28;20453;-77
2021/03/30 04:02:47;;;;;;;9.37;5.93;;;;;;;7.27;65.89;96041.66;5054081;28;20469;-76
2021/03/30 04:05:16;;;;;;;10.50;6.00;;;;;;;7.27;66.09;96039.06;5053392;28;20449;-76
2021/03/30 04:07:51;;;;;;;12.40;6.40;;;;;;;7.28;65.70;96043.34;5053233;28;20961;-76
2021/03/30 04:10:20;;;;;;;15.30;7.03;;;;;;;7.27;65.67;96046.03;5035286;28;20441;-76
2021/03/30 04:12:48;;;;;;;11.57;7.00;;;;;;;7.25;68.08;96048.72;5035184;28;20437;-78
2021/03/30 04:15:15;;;;;;;9.37;6.27;;;;;;;7.32;67.20;96052.69;5055660;28;20441;-76
2021/03/30 04:17:42;;;;;;;12.93;7.57;;;;;;;7.30;66.00;96049.31;5053462;28;20546;-76
2021/03/30 04:20:12;;;;;;;14.13;7.73;;;;;;;7.29;65.59;96052.88;5053125;28;20764;-76
2021/03/30 04:22:38;;;;;;;22.77;7.73;;;;;;;7.29;66.21;96055.47;5053435;28;20449;-76
2021/03/30 04:25:07;;;;;;;7.60;6.67;;;;;;;7.33;66.17;96064.81;5018523;28;20446;-76
2021/03/30 04:27:33;;;;;;;9.50;6.60;;;;;;;7.42;65.77;96059.09;5034713;28;20449;-76
2021/03/30 04:30:00;;;;;;;8.93;5.67;;;;;;;7.70;64.93;96074.13;5053431;28;20457;-76
2021/03/30 04:32:26;;;;;;;8.30;6.30;;;;;;;7.82;63.85;96071.78;5053381;28;20449;-76
2021/03/30 04:34:53;;;;;;;11.10;7.13;;;;;;;8.26;62.40;96077.97;5053009;28;20427;-76
2021/03/30 04:37:20;;;;;;;14.90;9.37;;;;;;;8.72;61.18;96074.53;5053258;28;20453;-75
2021/03/30 04:39:46;;;;;;;13.80;8.50;;;;;;;9.26;59.84;96071.25;5053363;28;20447;-77
2021/03/30 04:42:13;;;;;;;13.57;9.50;;;;;;;9.99;58.47;96067.59;5053284;28;20534;-77
2021/03/30 04:44:39;;;;;;;12.63;9.17;;;;;;;10.58;55.81;96068.16;5053425;28;20447;-76
2021/03/30 04:47:05;;;;;;;15.13;9.10;;;;;;;11.15;53.30;96069.50;5053180;28;20924;-75
2021/03/30 04:49:32;;;;;;;15.57;9.33;;;;;;;11.59;52.47;96067.41;5052983;28;20457;-76
2021/03/30 04:51:59;;;;;;;16.30;8.57;;;;;;;12.15;50.43;96063.41;5052698;28;20446;-76
2021/03/30 04:54:26;;;;;;;15.00;8.63;;;;;;;12.50;49.44;96062.63;5052042;28;20437;-76
2021/03/30 04:56:52;;;;;;;15.97;9.50;;;;;;;12.77;48.75;96072.91;5053007;28;20444;-76
2021/03/30 04:59:19;;;;;;;10.77;7.47;;;;;;;12.80;47.72;96070.88;5054827;28;20488;-76
2021/03/30 05:01:45;;;;;;;16.00;7.33;;;;;;;12.95;47.73;96072.34;5056931;28;20933;-76
2021/03/30 05:04:11;;;;;;;11.03;7.10;;;;;;;13.14;47.13;96063.91;5038248;28;20453;-76
2021/03/30 05:06:37;;;;;;;15.03;6.73;;;;;;;13.23;47.12;96060.59;5022011;28;20444;-77
2021/03/30 05:09:06;;;;;;;10.20;6.40;;;;;;;13.41;46.45;96066.25;5056935;28;20436;-77
2021/03/30 05:11:32;;;;;;;8.27;6.60;;;;;;;13.63;45.92;96066.28;5057258;28;20458;-76
2021/03/30 05:14:00;;;;;;;8.47;6.60;;;;;;;13.74;45.23;96070.69;5056665;28;20933;-77
2021/03/30 05:16:27;;;;;;;9.03;6.43;;;;;;;13.70;45.67;96073.69;5056900;28;20461;-76
2021/03/30 05:18:53;;;;;;;8.80;6.53;;;;;;;13.92;45.41;96063.97;5056711;28;20811;-77
2021/03/30 05:21:20;;;;;;;7.17;6.43;;;;;;;14.34;44.67;96068.56;5056891;28;20456;-78
2021/03/30 05:23:47;;;;;;;7.80;5.83;;;;;;;14.72;43.24;96063.66;5056767;28;20560;-75
2021/03/30 05:26:15;;;;;;;11.80;6.60;;;;;;;15.06;42.32;96060.88;5057033;28;20452;-76
2021/03/30 05:28:41;;;;;;;14.60;9.20;;;;;;;15.37;41.77;96065.25;5056490;28;20998;-77
2021/03/30 05:31:08;;;;;;;11.77;6.70;;;;;;;15.54;41.32;96068.25;5056447;28;20450;-78
2021/03/30 05:33:34;;;;;;;27.27;9.23;;;;;;;15.66;41.08;96068.09;5056331;28;20460;-77
2021/03/30 05:36:01;;;;;;;17.57;9.83;;;;;;;15.85;40.64;96066.47;5056192;28;20446;-77
2021/03/30 05:38:28;;;;;;;19.67;9.83;;;;;;;16.00;40.26;96071.28;5057025;28;20491;-77
2021/03/30 05:40:55;;;;;;;17.97;9.67;;;;;;;16.19;39.99;96073.16;5056362;28;20446;-78
2021/03/30 05:43:22;;;;;;;10.23;9.00;;;;;;;16.41;39.90;96082.66;5056349;28;20454;-78
2021/03/30 05:45:50;;;;;;;14.47;7.60;;;;;;;16.57;38.88;96077.69;5056210;28;20501;-76
2021/03/30 05:48:17;;;;;;;16.83;7.73;;;;;;;16.61;39.13;96078.25;5056133;28;20904;-75
2021/03/30 05:50:44;;;;;;;15.90;8.83;;;;;;;16.70;39.17;96085.38;5056145;28;20451;-77
2021/03/30 05:53:13;;;;;;;16.57;10.13;;;;;;;16.77;38.10;96081.22;5056477;28;20432;-79
2021/03/30 05:55:43;;;;;;;15.93;9.20;;;;;;;16.76;41.08;96078.69;5056617;28;21006;-79
2021/03/30 05:58:10;;;;;;;16.90;9.77;;;;;;;16.77;40.08;96085.66;5056246;28;20845;-77
2021/03/30 06:00:39;;;;;;;17.33;8.47;;;;;;;16.80;40.13;96088.91;5056165;28;20455;-78
2021/03/30 06:03:08;;;;;;;12.90;9.57;;;;;;;16.78;39.27;96085.56;5055567;28;20473;-80
2021/03/30 06:05:35;;;;;;;14.80;9.80;;;;;;;16.95;38.73;96084.00;5056020;28;20454;-78
2021/03/30 06:08:03;;;;;;;12.03;9.60;;;;;;;17.28;37.94;96083.56;5055244;28;20467;-78
2021/03/30 06:10:31;;;;;;;18.13;11.30;;;;;;;17.59;37.21;96091.31;5053193;28;20444;-78
2021/03/30 06:12:59;;;;;;;15.13;8.77;;;;;;;17.77;36.20;96094.94;5053118;28;20445;-79
2021/03/30 06:15:27;;;;;;;18.97;8.07;;;;;;;17.79;36.25;96087.66;5055326;28;20512;-80
2021/03/30 06:17:56;;;;;;;19.13;8.67;;;;;;;17.88;35.76;96086.78;5055492;28;20474;-79
2021/03/30 06:20:28;;;;;;;13.53;8.20;;;;;;;18.13;35.82;96089.78;5055279;28;20635;-78
2021/03/30 06:22:56;;;;;;;17.87;7.80;;;;;;;18.38;35.26;96089.09;5055624;28;20435;-79
2021/03/30 06:25:37;;;;;;;12.30;6.80;;;;;;;18.74;33.73;96094.47;5055223;28;20886;-81
2021/03/30 06:28:11;;;;;;;14.63;5.80;;;;;;;19.01;32.95;96085.59;5054859;28;20448;-79
2021/03/30 06:30:38;;;;;;;11.97;7.07;;;;;;;19.25;32.34;96080.50;5054041;28;20529;-79
2021/03/30 06:33:07;;;;;;;15.17;7.10;;;;;;;19.26;32.51;96076.00;5054329;28;20448;-79
2021/03/30 06:35:33;;;;;;;25.57;8.37;;;;;;;19.06;32.79;96072.66;5054991;28;20493;-77
2021/03/30 06:38:00;;;;;;;15.67;7.90;;;;;;;18.94;33.09;96080.06;5053201;28;20891;-79
2021/03/30 06:40:30;;;;;;;7.63;6.77;;;;;;;18.67;32.57;96078.28;5053567;28;20446;-78
2021/03/30 06:42:57;;;;;;;18.83;9.00;;;;;;;18.56;33.38;96074.00;5036249;28;20487;-79
2021/03/30 06:45:25;;;;;;;6.90;6.27;;;;;;;18.08;33.88;96070.78;5055367;28;21063;-78
2021/03/30 06:47:54;;;;;;;10.93;7.47;;;;;;;17.81;34.33;96077.75;5055308;28;20432;-78
2021/03/30 06:50:26;;;;;;;15.93;8.10;;;;;;;17.60;34.39;96075.25;5054792;28;20460;-79
2021/03/30 06:52:54;;;;;;;17.10;7.80;;;;;;;17.08;35.01;96078.44;5035692;28;20456;-79
2021/03/30 06:55:29;;;;;;;14.20;9.20;;;;;;;16.61;36.23;96083.53;5053944;28;20444;-79
2021/03/30 06:58:00;;;;;;;12.20;7.97;;;;;;;16.41;36.14;96085.31;5048045;28;20477;-78
2021/03/30 07:00:32;;;;;;;18.30;8.17;;;;;;;16.64;36.21;96080.63;5018765;28;20435;-79
2021/03/30 07:03:00;;;;;;;12.73;8.53;;;;;;;16.78;35.47;96074.97;5054244;28;20481;-79
2021/03/30 07:05:34;;;;;;;15.03;9.10;;;;;;;17.09;35.22;96074.81;5053783;28;20451;-79
2021/03/30 07:08:03;;;;;;;13.17;8.50;;;;;;;16.91;34.20;96079.97;5043986;28;20513;-78
2021/03/30 07:10:30;;;;;;;23.63;8.80;;;;;;;16.79;34.64;96083.75;5035140;28;20453;-78
2021/03/30 07:12:57;;;;;;;7.50;6.30;;;;;;;16.49;33.39;96074.91;5034451;28;20454;-79
2021/03/30 07:15:25;;;;;;;12.63;6.53;;;;;;;16.60;33.17;96082.72;5034548;28;20476;-80
2021/03/30 07:18:04;;;;;;;7.00;5.70;;;;;;;16.77;33.52;96072.41;5048900;28;20482;-78
2021/03/30 07:20:37;;;;;;;11.07;8.00;;;;;;;16.75;33.36;96080.50;5034491;28;20459;-79
2021/03/30 07:23:07;;;;;;;10.30;6.73;;;;;;;16.73;33.62;96072.69;5034103;28;20438;-78
2021/03/30 07:25:38;;;;;;;13.57;5.87;;;;;;;17.27;46.04;96079.22;5017825;28;20452;-77
2021/03/30 07:28:10;;;;;;;7.00;5.30;;;;;;;17.97;41.54;96077.13;5034914;28;20941;-78
2021/03/30 07:30:38;;;;;;;11.32;6.45;;;;;;;18.32;30.87;96072.91;5034927;28;20830;-81
2021/03/30 07:33:15;;;;;;;6.37;4.97;;;;;;;18.33;29.95;96074.56;5034766;28;20192;-80
2021/03/30 07:35:43;;;;;;;9.90;5.10;;;;;;;18.08;30.01;96086.72;5034031;28;20810;-78
2021/03/30 07:38:12;;;;;;;5.77;5.20;;;;;;;17.57;30.66;96091.47;5032018;28;20547;-78
2021/03/30 07:40:39;;;;;;;9.83;6.17;;;;;;;17.39;31.10;96084.41;5042210;28;20798;-78
2021/03/30 07:43:07;;;;;;;9.90;5.97;;;;;;;17.59;30.65;96083.34;5054695;28;20447;-78
2021/03/30 07:45:37;;;;;;;9.17;7.07;;;;;;;17.49;30.88;96090.53;5053746;28;20461;-78
2021/03/30 07:48:05;;;;;;;16.37;7.00;;;;;;;17.02;31.19;96093.06;5055361;28;20414;-79
2021/03/30 07:50:53;;;;;;;15.77;6.90;;;;;;;16.65;31.64;96085.78;5054294;28;20443;-79
2021/03/30 07:53:45;;;;;;;8.80;5.63;;;;;;;16.64;31.50;96088.56;5054247;28;20521;-79
2021/03/30 07:56:14;;;;;;;7.27;5.77;;;;;;;16.67;31.88;96088.31;5054366;28;20432;-79
2021/03/30 07:58:42;;;;;;;13.07;6.80;;;;;;;16.81;32.03;96085.28;5054242;28;20472;-78
2021/03/30 08:01:10;;;;;;;10.13;5.80;;;;;;;17.15;31.18;96093.63;5053581;28;20438;-79
2021/03/30 08:03:38;;;;;;;8.90;6.17;;;;;;;17.43;31.23;96085.78;5054827;28;20477;-79
2021/03/30 08:06:06;;;;;;;13.57;6.70;;;;;;;17.04;31.04;96091.94;5054849;28;20450;-79
2021/03/30 08:08:45;;;;;;;6.97;5.83;;;;;;;16.32;31.73;96089.63;5055056;28;20803;-79
2021/03/30 08:11:12;;;;;;;13.70;6.90;;;;;;;16.58;32.69;96087.31;5054617;28;20443;-78
2021/03/30 08:13:49;;;;;;;16.03;7.77;;;;;;;16.72;32.85;96084.28;5057280;28;20463;-79
2021/03/30 08:16:18;;;;;;;6.73;5.23;;;;;;;16.76;31.69;96084.00;5057990;28;20916;-78
2021/03/30 08:18:46;;;;;;;11.47;6.27;;;;;;;16.73;31.37;96083.28;5046082;28;20467;-78
2021/03/30 08:21:14;;;;;;;12.03;6.23;;;;;;;16.21;31.40;96091.56;5036846;28;20459;-79
2021/03/30 08:24:06;;;;;;;14.17;5.33;;;;;;;15.97;31.89;96081.31;5037468;28;20527;-78
2021/03/30 08:26:36;;;;;;;8.60;6.53;;;;;;;15.85;31.80;96080.53;5053475;28;20447;-78
2021/03/30 08:29:06;;;;;;;10.93;7.10;;;;;;;15.99;32.67;96076.72;5054343;28;20426;-79
2021/03/30 08:31:35;;;;;;;8.93;6.90;;;;;;;15.95;31.90;96076.13;5053219;28;20455;-79
2021/03/30 08:34:03;;;;;;;8.07;5.97;;;;;;;16.30;31.93;96080.16;5052925;28;20977;-78
2021/03/30 08:36:33;;;;;;;9.17;5.80;;;;;;;16.29;31.86;96067.88;5053950;28;20459;-78
2021/03/30 08:39:05;;;;;;;11.63;6.23;;;;;;;16.15;31.60;96082.31;5053439;28;20475;-78
2021/03/30 08:42:11;;;;;;;8.13;6.83;;;;;;;16.39;32.28;96084.63;5053273;28;20494;-78
2021/03/30 08:44:48;;;;;;;9.90;5.40;;;;;;;16.69;31.12;96079.25;5045011;28;20451;-78
2021/03/30 08:47:29;;;;;;;19.80;6.03;;;;;;;15.80;30.93;96080.09;5033628;28;20961;-78
2021/03/30 08:50:12;;;;;;;6.63;4.57;;;;;;;15.98;30.86;96082.97;5033201;28;20444;-79
2021/03/30 08:52:39;;;;;;;6.00;5.40;;;;;;;16.08;32.54;96076.72;5046326;28;20446;-78
2021/03/30 08:55:08;;;;;;;6.00;4.70;;;;;;;15.71;30.57;96073.81;5053635;28;20448;-79
2021/03/30 08:57:37;;;;;;;4.33;3.93;;;;;;;15.64;31.19;96075.31;5053579;28;20459;-78
2021/03/30 09:00:07;;;;;;;10.13;5.93;;;;;;;15.65;30.88;96084.09;5052763;28;20499;-79
2021/03/30 09:02:33;;;;;;;5.83;4.40;;;;;;;15.45;31.29;96088.41;5053952;28;20981;-78
2021/03/30 09:05:00;;;;;;;4.47;4.07;;;;;;;15.06;33.13;96071.47;5050125;28;20442;-78
2021/03/30 09:07:27;;;;;;;7.47;5.20;;;;;;;15.18;32.72;96078.34;5018918;28;20447;-78
2021/03/30 09:10:05;;;;;;;7.40;5.13;;;;;;;15.31;32.65;96076.31;5055893;28;20454;-79
2021/03/30 09:12:31;;;;;;;9.97;5.27;;;;;;;15.19;33.52;96072.09;5054695;28;20499;-78
2021/03/30 09:15:04;;;;;;;10.90;6.37;;;;;;;15.19;32.29;96078.22;5053268;28;20443;-78
2021/03/30 09:17:30;;;;;;;6.10;5.50;;;;;;;15.29;33.08;96077.44;5054310;28;20445;-78
2021/03/30 09:19:59;;;;;;;6.80;4.90;;;;;;;15.20;32.49;96071.13;5053674;28;20485;-78
2021/03/30 09:22:30;;;;;;;7.70;5.37;;;;;;;14.91;33.18;96073.56;5053554;28;20545;-79
2021/03/30 09:25:09;;;;;;;5.17;4.67;;;;;;;14.93;32.93;96060.22;5053623;28;20452;-78
2021/03/30 09:27:38;;;;;;;6.37;4.53;;;;;;;15.15;32.84;96075.97;5053194;28;20434;-78
2021/03/30 09:30:07;;;;;;;10.30;5.20;;;;;;;14.46;34.48;96062.34;5053663;28;20455;-78
2021/03/30 09:32:35;;;;;;;8.67;5.73;;;;;;;14.20;34.93;96070.53;5052747;28;20452;-76
2021/03/30 09:35:06;;;;;;;4.70;4.27;;;;;;;14.74;34.88;96067.00;5052811;28;20436;-78
2021/03/30 09:37:34;;;;;;;8.43;6.00;;;;;;;14.81;34.18;96070.00;5033513;28;20445;-80
2021/03/30 09:40:06;;;;;;;7.57;4.47;;;;;;;14.69;33.17;96071.84;5035074;28;20282;-79
2021/03/30 09:42:33;;;;;;;5.60;4.90;;;;;;;15.09;35.03;96061.47;5032379;28;21016;-80
2021/03/30 09:45:00;;;;;;;22.25;5.93;;;;;;;15.60;35.04;96060.66;5045611;28;20445;-78
2021/03/30 09:47:29;;;;;;;7.00;5.67;;;;;;;15.94;33.33;96050.63;5056654;28;20186;-78
2021/03/30 09:49:56;;;;;;;5.47;4.97;;;;;;;15.79;32.92;96044.88;5057963;28;20484;-79
2021/03/30 09:52:23;;;;;;;6.20;5.60;;;;;;;15.81;32.73;96052.66;5056803;28;20445;-81
2021/03/30 09:54:50;;;;;;;6.83;4.97;;;;;;;15.96;32.57;96046.03;5056678;28;20543;-81
2021/03/30 09:57:21;;;;;;;6.37;5.27;;;;;;;15.56;32.56;96043.34;5045758;28;20450;-78
2021/03/30 09:59:49;;;;;;;7.03;5.20;;;;;;;15.46;32.71;96045.09;5056393;28;20482;-78
2021/03/30 10:02:18;;;;;;;8.53;6.00;;;;;;;15.57;33.25;96033.59;5056124;28;20473;-78
2021/03/30 10:04:44;;;;;;;12.13;6.70;;;;;;;15.78;33.94;96026.47;5053522;28;20456;-78
2021/03/30 10:07:16;;;;;;;8.53;4.80;;;;;;;15.91;33.14;96032.38;5052046;28;20515;-78
2021/03/30 10:09:56;;;;;;;12.80;5.00;;;;;;;15.86;32.03;96036.38;5042688;28;20468;-77
2021/03/30 10:12:24;;;;;;;6.00;5.10;;;;;;;15.66;32.45;96030.19;5042312;28;20966;-79
2021/03/30 10:14:50;;;;;;;5.17;4.77;;;;;;;15.24;32.59;96024.09;5055167;28;20452;-78
2021/03/30 10:17:17;;;;;;;7.30;4.70;;;;;;;15.40;32.59;96021.84;5054520;28;20487;-79
2021/03/30 10:19:50;;;;;;;7.97;4.90;;;;;;;15.31;33.13;96023.44;5050228;28;20887;-79
2021/03/30 10:22:24;;;;;;;28.23;6.47;;;;;;;15.09;33.34;96019.16;5035671;28;20964;-79
2021/03/30 10:25:09;;;;;;;10.73;5.30;;;;;;;15.19;33.48;96022.69;5035980;28;20545;-78
2021/03/30 10:27:36;;;;;;;7.00;5.53;;;;;;;14.92;33.48;96018.88;5048467;28;20479;-78
2021/03/30 10:30:04;;;;;;;11.00;5.53;;;;;;;14.84;34.36;96016.91;5055344;28;20440;-78
2021/03/30 10:32:44;;;;;;;14.73;5.57;;;;;;;15.00;34.16;96008.50;5055576;28;20488;-78
2021/03/30 10:35:12;;;;;;;5.57;5.07;;;;;;;15.14;34.21;96014.31;5043919;28;20935;-78
2021/03/30 10:37:38;;;;;;;6.40;5.50;;;;;;;15.31;33.21;96007.56;5055413;28;20841;-79
2021/03/30 10:40:06;;;;;;;8.00;5.63;;;;;;;15.46;34.43;96000.13;5055485;28;20556;-78
2021/03/30 10:42:37;;;;;;;7.77;5.43;;;;;;;15.62;33.34;95991.75;5043673;28;20445;-79
2021/03/30 10:45:06;;;;;;;16.20;4.33;;;;;;;15.56;32.43;95994.88;5030838;28;20944;-78
2021/03/30 10:47:36;;;;;;;8.00;4.80;;;;;;;15.38;32.36;96003.44;5055415;28;20521;-79
2021/03/30 10:50:04;;;;;;;6.93;5.20;;;;;;;15.41;32.28;96008.47;5053884;28;20543;-78
2021/03/30 10:52:31;;;;;;;6.20;5.00;;;;;;;14.90;33.20;95991.75;5043764;28;20948;-79
2021/03/30 10:54:59;;;;;;;7.97;5.70;;;;;;;14.98;33.00;95995.41;5039897;28;20962;-78
2021/03/30 10:57:27;;;;;;;5.73;4.80;;;;;;;15.07;34.08;96001.75;5035134;28;20534;-78
2021/03/30 10:59:56;;;;;;;9.80;5.20;;;;;;;15.05;32.98;95990.47;5035006;28;21019;-79
2021/03/30 11:02:22;;;;;;;6.40;5.80;;;;;;;15.04;34.96;95971.13;5042489;28;20497;-79
2021/03/30 11:04:49;;;;;;;9.80;5.67;;;;;;;15.34;33.26;95975.59;5017015;28;20446;-78
2021/03/30 11:07:16;;;;;;;8.43;4.90;;;;;;;15.59;33.90;95973.47;5044776;28;20451;-79
2021/03/30 11:09:43;;;;;;;5.30;4.77;;;;;;;15.74;33.38;95970.31;5019181;28;20449;-78
2021/03/30 11:12:11;;;;;;;5.07;4.60;;;;;;;15.88;32.14;95963.81;5052639;28;20870;-79
2021/03/30 11:14:37;;;;;;;6.33;4.23;;;;;;;15.91;32.28;95968.84;5053290;28;20433;-78
2021/03/30 11:17:04;;;;;;;4.97;3.87;;;;;;;16.01;32.41;95968.84;5045229;28;20454;-79
2021/03/30 11:19:31;;;;;;;6.57;4.03;;;;;;;15.79;30.98;95964.63;5053715;28;20485;-79
2021/03/30 11:21:59;;;;;;;5.47;3.73;;;;;;;15.55;30.78;95964.09;5034012;28;20934;-78
2021/03/30 11:24:28;;;;;;;4.80;3.40;;;;;;;15.28;31.90;95969.97;5034345;28;20440;-79
2021/03/30 11:26:56;;;;;;;3.90;3.57;;;;;;;15.08;31.13;95961.13;5034595;28;20461;-78
2021/03/30 11:29:26;;;;;;;5.57;4.10;;;;;;;15.21;32.26;95953.81;5036316;28;20459;-78
2021/03/30 11:32:07;;;;;;;6.90;4.23;;;;;;;15.21;31.82;95959.09;5053930;28;20448;-79
2021/03/30 11:34:37;;;;;;;5.70;3.57;;;;;;;15.02;30.68;95946.59;5053872;28;20952;-79
2021/03/30 11:37:16;;;;;;;3.60;3.30;;;;;;;14.97;30.58;95945.31;5040941;28;20464;-79
2021/03/30 11:39:46;;;;;;;4.33;3.63;;;;;;;15.19;31.84;95943.38;5035736;28;21073;-79
2021/03/30 11:42:12;;;;;;;4.53;4.13;;;;;;;15.23;31.27;95946.56;5054036;28;20428;-79